sensor_id;sensor_type;location;lat;lon;timestamp;temperature;humidity
5392;DHT22;2719;53.624;9.786;2023-10-09T00:02:05;13.10;99.90
5392;DHT22;2719;53.624;9.786;2023-10-09T00:04:33;13.10;99.90
5392;DHT22;2719;53.624;9.786;2023-10-09T00:07:02;13.00;99.90
5392;DHT22;2719;53.624;9.786;2023-10-09T00:09:29;13.10;99.90
5392;DHT22;2719;53.624;9.786;2023-10-09T00:11:59;13.20;99.90
5392;DHT22;2719;53.624;9.786;2023-10-09T00:14:29;13.10;99.90
5392;DHT22;2719;53.624;9.786;2023-10-09T00:16:58;13.10;99.90
5392;DHT22;2719;53.624;9.786;2023-10-09T00:19:42;13.10;99.90
5392;DHT22;2719;53.624;9.786;2023-10-09T00:22:09;13.10;99.90
5392;DHT22;2719;53.624;9.786;2023-10-09T00:24:45;13.00;99.90
5392;DHT22;2719;53.624;9.786;2023-10-09T00:27:15;13.10;99.90
5392;DHT22;2719;53.624;9.786;2023-10-09T00:29:46;13.00;99.90
5392;DHT22;2719;53.624;9.786;2023-10-09T00:32:15;13.00;99.90
5392;DHT22;2719;53.624;9.786;2023-10-09T00:34:48;13.10;99.90
5392;DHT22;2719;53.624;9.786;2023-10-09T00:37:16;13.10;99.90
5392;DHT22;2719;53.624;9.786;2023-10-09T00:39:48;13.10;99.90
5392;DHT22;2719;53.624;9.786;2023-10-09T00:42:21;13.10;99.90
5392;DHT22;2719;53.624;9.786;2023-10-09T00:44:54;13.20;99.90
5392;DHT22;2719;53.624;9.786;2023-10-09T00:47:21;13.20;99.90
5392;DHT22;2719;53.624;9.786;2023-10-09T00:49:50;13.20;99.90
5392;DHT22;2719;53.624;9.786;2023-10-09T00:52:20;13.20;99.90
5392;DHT22;2719;53.624;9.786;2023-10-09T00:54:49;13.20;99.90
5392;DHT22;2719;53.624;9.786;2023-10-09T00:57:18;13.20;99.90
5392;DHT22;2719;53.624;9.786;2023-10-09T00:59:54;13.20;99.90
5392;DHT22;2719;53.624;9.786;2023-10-09T01:02:26;13.20;99.90
5392;DHT22;2719;53.624;9.786;2023-10-09T01:05:01;13.10;99.90
5392;DHT22;2719;53.624;9.786;2023-10-09T01:07:45;13.10;99.90
5392;DHT22;2719;53.624;9.786;2023-10-09T01:10:12;13.10;99.90
5392;DHT22;2719;53.624;9.786;2023-10-09T01:12:59;13.10;99.90
5392;DHT22;2719;53.624;9.786;2023-10-09T01:15:28;13.00;99.90
5392;DHT22;2719;53.624;9.786;2023-10-09T01:18:09;13.00;99.90
5392;DHT22;2719;53.624;9.786;2023-10-09T01:20:36;13.00;99.90
5392;DHT22;2719;53.624;9.786;2023-10-09T01:23:10;12.90;99.90
5392;DHT22;2719;53.624;9.786;2023-10-09T01:25:37;13.00;99.90
5392;DHT22;2719;53.624;9.786;2023-10-09T01:28:10;13.00;99.90
5392;DHT22;2719;53.624;9.786;2023-10-09T01:30:54;13.00;99.90
5392;DHT22;2719;53.624;9.786;2023-10-09T01:33:21;13.10;99.90
5392;DHT22;2719;53.624;9.786;2023-10-09T01:35:52;12.80;99.90
5392;DHT22;2719;53.624;9.786;2023-10-09T01:38:25;12.90;99.90
5392;DHT22;2719;53.624;9.786;2023-10-09T01:41:07;12.90;99.90
5392;DHT22;2719;53.624;9.786;2023-10-09T01:43:34;12.90;99.90
5392;DHT22;2719;53.624;9.786;2023-10-09T01:46:01;12.90;99.90
5392;DHT22;2719;53.624;9.786;2023-10-09T01:48:29;12.90;99.90
5392;DHT22;2719;53.624;9.786;2023-10-09T01:50:58;12.90;99.90
5392;DHT22;2719;53.624;9.786;2023-10-09T01:53:28;12.80;99.90
5392;DHT22;2719;53.624;9.786;2023-10-09T01:55:55;12.80;99.90
5392;DHT22;2719;53.624;9.786;2023-10-09T01:58:24;12.70;99.90
5392;DHT22;2719;53.624;9.786;2023-10-09T02:00:52;12.70;99.90
5392;DHT22;2719;53.624;9.786;2023-10-09T02:03:20;12.70;99.90
5392;DHT22;2719;53.624;9.786;2023-10-09T02:05:50;12.80;99.90
5392;DHT22;2719;53.624;9.786;2023-10-09T02:08:16;12.80;99.90
5392;DHT22;2719;53.624;9.786;2023-10-09T02:10:48;12.80;99.90
5392;DHT22;2719;53.624;9.786;2023-10-09T02:13:15;12.70;99.90
5392;DHT22;2719;53.624;9.786;2023-10-09T02:15:43;12.70;99.90
5392;DHT22;2719;53.624;9.786;2023-10-09T02:18:24;12.50;99.90
5392;DHT22;2719;53.624;9.786;2023-10-09T02:21:06;12.50;99.90
5392;DHT22;2719;53.624;9.786;2023-10-09T02:23:39;12.60;99.90
5392;DHT22;2719;53.624;9.786;2023-10-09T02:26:08;12.50;99.90
5392;DHT22;2719;53.624;9.786;2023-10-09T02:28:35;12.50;99.90
5392;DHT22;2719;53.624;9.786;2023-10-09T02:31:10;12.50;99.90
5392;DHT22;2719;53.624;9.786;2023-10-09T02:33:38;12.50;99.90
5392;DHT22;2719;53.624;9.786;2023-10-09T02:36:06;12.50;99.90
5392;DHT22;2719;53.624;9.786;2023-10-09T02:38:33;12.50;99.90
5392;DHT22;2719;53.624;9.786;2023-10-09T02:41:03;12.40;99.90
5392;DHT22;2719;53.624;9.786;2023-10-09T02:43:49;12.50;99.90
5392;DHT22;2719;53.624;9.786;2023-10-09T02:46:22;12.50;99.90
5392;DHT22;2719;53.624;9.786;2023-10-09T02:48:55;12.30;99.90
5392;DHT22;2719;53.624;9.786;2023-10-09T02:51:23;12.30;99.90
5392;DHT22;2719;53.624;9.786;2023-10-09T02:54:07;12.40;99.90
5392;DHT22;2719;53.624;9.786;2023-10-09T02:56:43;12.40;99.90
5392;DHT22;2719;53.624;9.786;2023-10-09T02:59:14;12.40;99.90
5392;DHT22;2719;53.624;9.786;2023-10-09T03:01:41;12.40;99.90
5392;DHT22;2719;53.624;9.786;2023-10-09T03:04:08;12.30;99.90
5392;DHT22;2719;53.624;9.786;2023-10-09T03:06:36;12.30;99.90
5392;DHT22;2719;53.624;9.786;2023-10-09T03:09:08;12.20;99.90
5392;DHT22;2719;53.624;9.786;2023-10-09T03:11:44;12.20;99.90
5392;DHT22;2719;53.624;9.786;2023-10-09T03:14:11;12.20;99.90
5392;DHT22;2719;53.624;9.786;2023-10-09T03:16:39;12.20;99.90
5392;DHT22;2719;53.624;9.786;2023-10-09T03:19:06;12.30;99.90
5392;DHT22;2719;53.624;9.786;2023-10-09T03:21:33;12.40;99.90
5392;DHT22;2719;53.624;9.786;2023-10-09T03:23:59;12.30;99.90
5392;DHT22;2719;53.624;9.786;2023-10-09T03:26:30;12.40;99.90
5392;DHT22;2719;53.624;9.786;2023-10-09T03:28:56;12.40;99.90
5392;DHT22;2719;53.624;9.786;2023-10-09T03:31:26;12.30;99.90
5392;DHT22;2719;53.624;9.786;2023-10-09T03:33:54;12.20;99.90
5392;DHT22;2719;53.624;9.786;2023-10-09T03:36:21;12.00;99.90
5392;DHT22;2719;53.624;9.786;2023-10-09T03:38:52;12.10;99.90
5392;DHT22;2719;53.624;9.786;2023-10-09T03:41:20;12.20;99.90
5392;DHT22;2719;53.624;9.786;2023-10-09T03:43:46;12.20;99.90
5392;DHT22;2719;53.624;9.786;2023-10-09T03:46:14;12.20;99.90
5392;DHT22;2719;53.624;9.786;2023-10-09T03:48:46;12.20;99.90
5392;DHT22;2719;53.624;9.786;2023-10-09T03:51:15;12.20;99.90
5392;DHT22;2719;53.624;9.786;2023-10-09T03:53:47;12.30;99.90
5392;DHT22;2719;53.624;9.786;2023-10-09T03:56:14;12.20;99.90
5392;DHT22;2719;53.624;9.786;2023-10-09T03:58:42;12.30;99.90
5392;DHT22;2719;53.624;9.786;2023-10-09T04:01:11;12.30;99.90
5392;DHT22;2719;53.624;9.786;2023-10-09T04:03:44;12.30;99.90
5392;DHT22;2719;53.624;9.786;2023-10-09T04:06:10;12.30;99.90
5392;DHT22;2719;53.624;9.786;2023-10-09T04:08:39;12.30;99.90
5392;DHT22;2719;53.624;9.786;2023-10-09T04:11:14;12.40;99.90
5392;DHT22;2719;53.624;9.786;2023-10-09T04:13:48;12.40;99.90
5392;DHT22;2719;53.624;9.786;2023-10-09T04:16:15;12.40;99.90
5392;DHT22;2719;53.624;9.786;2023-10-09T04:19:01;12.40;99.90
5392;DHT22;2719;53.624;9.786;2023-10-09T04:21:36;12.30;99.90
5392;DHT22;2719;53.624;9.786;2023-10-09T04:24:05;12.30;99.90
5392;DHT22;2719;53.624;9.786;2023-10-09T04:26:50;12.40;99.90
5392;DHT22;2719;53.624;9.786;2023-10-09T04:29:22;12.40;99.90
5392;DHT22;2719;53.624;9.786;2023-10-09T04:32:04;12.40;99.90
5392;DHT22;2719;53.624;9.786;2023-10-09T04:34:33;12.40;99.90
5392;DHT22;2719;53.624;9.786;2023-10-09T04:37:01;12.30;99.90
5392;DHT22;2719;53.624;9.786;2023-10-09T04:39:46;12.30;99.90
5392;DHT22;2719;53.624;9.786;2023-10-09T04:42:13;12.30;99.90
5392;DHT22;2719;53.624;9.786;2023-10-09T04:45:00;12.20;99.90
5392;DHT22;2719;53.624;9.786;2023-10-09T04:47:40;12.20;99.90
5392;DHT22;2719;53.624;9.786;2023-10-09T04:50:15;12.30;99.90
5392;DHT22;2719;53.624;9.786;2023-10-09T04:53:02;12.20;99.90
5392;DHT22;2719;53.624;9.786;2023-10-09T04:55:49;12.20;99.90
5392;DHT22;2719;53.624;9.786;2023-10-09T04:58:24;12.10;99.90
5392;DHT22;2719;53.624;9.786;2023-10-09T05:00:52;12.10;99.90
5392;DHT22;2719;53.624;9.786;2023-10-09T05:03:36;11.90;99.90
5392;DHT22;2719;53.624;9.786;2023-10-09T05:06:09;11.90;99.90
5392;DHT22;2719;53.624;9.786;2023-10-09T05:09:09;11.90;99.90
5392;DHT22;2719;53.624;9.786;2023-10-09T05:11:38;11.90;99.90
5392;DHT22;2719;53.624;9.786;2023-10-09T05:14:20;11.90;99.90
5392;DHT22;2719;53.624;9.786;2023-10-09T05:17:05;11.90;99.90
5392;DHT22;2719;53.624;9.786;2023-10-09T05:19:41;11.90;99.90
5392;DHT22;2719;53.624;9.786;2023-10-09T05:22:20;11.90;99.90
5392;DHT22;2719;53.624;9.786;2023-10-09T05:25:29;11.90;99.90
5392;DHT22;2719;53.624;9.786;2023-10-09T05:28:15;11.80;99.90
5392;DHT22;2719;53.624;9.786;2023-10-09T05:31:14;11.90;99.90
5392;DHT22;2719;53.624;9.786;2023-10-09T05:34:01;11.90;99.90
5392;DHT22;2719;53.624;9.786;2023-10-09T05:36:28;11.90;99.90
5392;DHT22;2719;53.624;9.786;2023-10-09T05:38:57;11.90;99.90
5392;DHT22;2719;53.624;9.786;2023-10-09T05:41:43;12.00;99.90
5392;DHT22;2719;53.624;9.786;2023-10-09T05:44:26;12.00;99.90
5392;DHT22;2719;53.624;9.786;2023-10-09T05:47:10;12.00;99.90
5392;DHT22;2719;53.624;9.786;2023-10-09T05:49:54;11.80;99.90
5392;DHT22;2719;53.624;9.786;2023-10-09T05:52:27;11.80;99.90
5392;DHT22;2719;53.624;9.786;2023-10-09T05:55:26;11.90;99.90
5392;DHT22;2719;53.624;9.786;2023-10-09T05:58:11;11.90;99.90
5392;DHT22;2719;53.624;9.786;2023-10-09T06:01:07;11.80;99.90
5392;DHT22;2719;53.624;9.786;2023-10-09T06:03:52;11.90;99.90
5392;DHT22;2719;53.624;9.786;2023-10-09T06:06:30;11.90;99.90
5392;DHT22;2719;53.624;9.786;2023-10-09T06:09:02;12.00;99.90
5392;DHT22;2719;53.624;9.786;2023-10-09T06:11:47;11.90;99.90
5392;DHT22;2719;53.624;9.786;2023-10-09T06:14:20;11.90;99.90
5392;DHT22;2719;53.624;9.786;2023-10-09T06:16:52;11.90;99.90
5392;DHT22;2719;53.624;9.786;2023-10-09T06:19:48;11.70;99.90
5392;DHT22;2719;53.624;9.786;2023-10-09T06:22:14;11.80;99.90
5392;DHT22;2719;53.624;9.786;2023-10-09T06:25:01;11.70;99.90
5392;DHT22;2719;53.624;9.786;2023-10-09T06:27:34;11.80;99.90
5392;DHT22;2719;53.624;9.786;2023-10-09T06:30:22;11.80;99.90
5392;DHT22;2719;53.624;9.786;2023-10-09T06:32:54;11.60;99.90
5392;DHT22;2719;53.624;9.786;2023-10-09T06:35:45;11.60;99.90
5392;DHT22;2719;53.624;9.786;2023-10-09T06:38:19;11.70;99.90
5392;DHT22;2719;53.624;9.786;2023-10-09T06:40:50;11.50;99.90
5392;DHT22;2719;53.624;9.786;2023-10-09T06:43:30;11.60;99.90
5392;DHT22;2719;53.624;9.786;2023-10-09T06:46:02;11.60;99.90
5392;DHT22;2719;53.624;9.786;2023-10-09T06:48:44;11.60;99.90
5392;DHT22;2719;53.624;9.786;2023-10-09T06:51:12;11.50;99.90
5392;DHT22;2719;53.624;9.786;2023-10-09T06:53:41;11.60;99.90
5392;DHT22;2719;53.624;9.786;2023-10-09T06:56:29;11.60;99.90
5392;DHT22;2719;53.624;9.786;2023-10-09T06:59:15;11.70;99.90
5392;DHT22;2719;53.624;9.786;2023-10-09T07:01:47;11.60;99.90
5392;DHT22;2719;53.624;9.786;2023-10-09T07:04:34;11.50;99.90
5392;DHT22;2719;53.624;9.786;2023-10-09T07:07:13;11.60;99.90
5392;DHT22;2719;53.624;9.786;2023-10-09T07:09:42;11.70;99.90
5392;DHT22;2719;53.624;9.786;2023-10-09T07:12:08;11.70;99.90
5392;DHT22;2719;53.624;9.786;2023-10-09T07:14:39;11.70;99.90
5392;DHT22;2719;53.624;9.786;2023-10-09T07:17:24;11.60;99.90
5392;DHT22;2719;53.624;9.786;2023-10-09T07:20:11;11.50;99.90
5392;DHT22;2719;53.624;9.786;2023-10-09T07:22:39;11.60;99.90
5392;DHT22;2719;53.624;9.786;2023-10-09T07:25:18;11.50;99.90
5392;DHT22;2719;53.624;9.786;2023-10-09T07:28:06;11.60;99.90
5392;DHT22;2719;53.624;9.786;2023-10-09T07:30:51;11.70;99.90
5392;DHT22;2719;53.624;9.786;2023-10-09T07:33:28;11.80;99.90
5392;DHT22;2719;53.624;9.786;2023-10-09T07:36:17;11.70;99.90
5392;DHT22;2719;53.624;9.786;2023-10-09T07:38:56;11.70;99.90
5392;DHT22;2719;53.624;9.786;2023-10-09T07:41:30;11.70;99.90
5392;DHT22;2719;53.624;9.786;2023-10-09T07:44:02;11.80;99.90
5392;DHT22;2719;53.624;9.786;2023-10-09T07:46:44;11.80;99.90
5392;DHT22;2719;53.624;9.786;2023-10-09T07:49:18;11.90;99.90
5392;DHT22;2719;53.624;9.786;2023-10-09T07:51:51;11.80;99.90
5392;DHT22;2719;53.624;9.786;2023-10-09T07:54:19;11.90;99.90
5392;DHT22;2719;53.624;9.786;2023-10-09T07:56:58;11.90;99.90
5392;DHT22;2719;53.624;9.786;2023-10-09T07:59:34;11.80;99.90
5392;DHT22;2719;53.624;9.786;2023-10-09T08:02:06;11.80;99.90
5392;DHT22;2719;53.624;9.786;2023-10-09T08:04:44;11.80;99.90
5392;DHT22;2719;53.624;9.786;2023-10-09T08:07:16;11.80;99.90
5392;DHT22;2719;53.624;9.786;2023-10-09T08:09:51;11.80;99.90
5392;DHT22;2719;53.624;9.786;2023-10-09T08:12:37;11.90;99.90
5392;DHT22;2719;53.624;9.786;2023-10-09T08:15:21;11.90;99.90
5392;DHT22;2719;53.624;9.786;2023-10-09T08:17:52;11.80;99.90
5392;DHT22;2719;53.624;9.786;2023-10-09T08:20:22;11.90;99.90
5392;DHT22;2719;53.624;9.786;2023-10-09T08:22:53;11.90;99.90
5392;DHT22;2719;53.624;9.786;2023-10-09T08:25:21;11.90;99.90
5392;DHT22;2719;53.624;9.786;2023-10-09T08:27:56;12.00;99.90
5392;DHT22;2719;53.624;9.786;2023-10-09T08:30:24;12.00;99.90
5392;DHT22;2719;53.624;9.786;2023-10-09T08:33:09;12.10;99.90
5392;DHT22;2719;53.624;9.786;2023-10-09T08:35:54;12.10;99.90
5392;DHT22;2719;53.624;9.786;2023-10-09T08:38:28;12.10;99.90
5392;DHT22;2719;53.624;9.786;2023-10-09T08:41:10;12.10;99.90
5392;DHT22;2719;53.624;9.786;2023-10-09T08:43:48;12.20;99.90
5392;DHT22;2719;53.624;9.786;2023-10-09T08:46:22;12.20;99.90
5392;DHT22;2719;53.624;9.786;2023-10-09T08:48:52;12.20;99.90
5392;DHT22;2719;53.624;9.786;2023-10-09T08:51:19;12.20;99.90
5392;DHT22;2719;53.624;9.786;2023-10-09T08:53:47;12.20;99.90
5392;DHT22;2719;53.624;9.786;2023-10-09T08:56:16;12.20;99.90
5392;DHT22;2719;53.624;9.786;2023-10-09T08:58:48;12.30;99.90
5392;DHT22;2719;53.624;9.786;2023-10-09T09:01:17;12.20;99.90
5392;DHT22;2719;53.624;9.786;2023-10-09T09:03:53;12.30;99.90
5392;DHT22;2719;53.624;9.786;2023-10-09T09:06:22;12.30;99.90
5392;DHT22;2719;53.624;9.786;2023-10-09T09:08:51;12.30;99.90
5392;DHT22;2719;53.624;9.786;2023-10-09T09:11:25;12.40;99.90
5392;DHT22;2719;53.624;9.786;2023-10-09T09:14:02;12.40;99.90
5392;DHT22;2719;53.624;9.786;2023-10-09T09:16:31;12.40;99.90
5392;DHT22;2719;53.624;9.786;2023-10-09T09:19:02;12.40;99.90
5392;DHT22;2719;53.624;9.786;2023-10-09T09:21:31;12.40;99.90
5392;DHT22;2719;53.624;9.786;2023-10-09T09:24:05;12.40;99.90
5392;DHT22;2719;53.624;9.786;2023-10-09T09:26:40;12.40;99.90
5392;DHT22;2719;53.624;9.786;2023-10-09T09:29:12;12.50;99.90
5392;DHT22;2719;53.624;9.786;2023-10-09T09:31:52;12.50;99.90
5392;DHT22;2719;53.624;9.786;2023-10-09T09:34:18;12.50;99.90
5392;DHT22;2719;53.624;9.786;2023-10-09T09:36:51;12.40;99.90
5392;DHT22;2719;53.624;9.786;2023-10-09T09:39:23;12.40;99.90
5392;DHT22;2719;53.624;9.786;2023-10-09T09:41:57;12.40;99.90
5392;DHT22;2719;53.624;9.786;2023-10-09T09:44:30;12.50;99.90
5392;DHT22;2719;53.624;9.786;2023-10-09T09:46:59;12.50;99.90
5392;DHT22;2719;53.624;9.786;2023-10-09T09:49:27;12.40;99.90
5392;DHT22;2719;53.624;9.786;2023-10-09T09:51:58;12.40;99.90
5392;DHT22;2719;53.624;9.786;2023-10-09T09:54:26;12.40;99.90
5392;DHT22;2719;53.624;9.786;2023-10-09T09:56:54;12.50;99.90
5392;DHT22;2719;53.624;9.786;2023-10-09T09:59:26;12.60;99.90
5392;DHT22;2719;53.624;9.786;2023-10-09T10:01:54;12.60;99.90
5392;DHT22;2719;53.624;9.786;2023-10-09T10:04:26;12.60;99.90
5392;DHT22;2719;53.624;9.786;2023-10-09T10:06:55;12.70;99.90
5392;DHT22;2719;53.624;9.786;2023-10-09T10:09:37;12.70;99.90
5392;DHT22;2719;53.624;9.786;2023-10-09T10:12:07;12.70;99.90
5392;DHT22;2719;53.624;9.786;2023-10-09T10:14:52;12.80;99.90
5392;DHT22;2719;53.624;9.786;2023-10-09T10:17:22;12.80;99.90
5392;DHT22;2719;53.624;9.786;2023-10-09T10:20:05;12.80;99.90
5392;DHT22;2719;53.624;9.786;2023-10-09T10:23:14;12.70;99.90
5392;DHT22;2719;53.624;9.786;2023-10-09T10:25:44;12.80;99.90
5392;DHT22;2719;53.624;9.786;2023-10-09T10:28:21;12.80;99.90
5392;DHT22;2719;53.624;9.786;2023-10-09T10:31:07;12.80;99.90
5392;DHT22;2719;53.624;9.786;2023-10-09T10:34:04;12.80;99.90
5392;DHT22;2719;53.624;9.786;2023-10-09T10:36:36;12.80;99.90
5392;DHT22;2719;53.624;9.786;2023-10-09T10:39:08;12.90;99.90
5392;DHT22;2719;53.624;9.786;2023-10-09T10:41:37;12.80;99.90
5392;DHT22;2719;53.624;9.786;2023-10-09T10:44:24;12.90;99.90
5392;DHT22;2719;53.624;9.786;2023-10-09T10:47:10;12.90;99.90
5392;DHT22;2719;53.624;9.786;2023-10-09T10:49:51;12.90;99.90
5392;DHT22;2719;53.624;9.786;2023-10-09T10:52:24;12.90;99.90
5392;DHT22;2719;53.624;9.786;2023-10-09T10:55:08;12.90;99.90
5392;DHT22;2719;53.624;9.786;2023-10-09T10:58:15;12.90;99.90
5392;DHT22;2719;53.624;9.786;2023-10-09T11:00:52;12.90;99.90
5392;DHT22;2719;53.624;9.786;2023-10-09T11:03:41;12.90;99.90
5392;DHT22;2719;53.624;9.786;2023-10-09T11:06:25;12.90;99.90
5392;DHT22;2719;53.624;9.786;2023-10-09T11:09:02;12.90;99.90
5392;DHT22;2719;53.624;9.786;2023-10-09T11:11:46;12.90;99.90
5392;DHT22;2719;53.624;9.786;2023-10-09T11:14:14;13.00;99.90
5392;DHT22;2719;53.624;9.786;2023-10-09T11:16:43;13.00;99.90
5392;DHT22;2719;53.624;9.786;2023-10-09T11:19:14;13.10;99.90
5392;DHT22;2719;53.624;9.786;2023-10-09T11:21:55;13.10;99.90
5392;DHT22;2719;53.624;9.786;2023-10-09T11:24:48;13.10;99.90
5392;DHT22;2719;53.624;9.786;2023-10-09T11:27:27;13.10;99.90
5392;DHT22;2719;53.624;9.786;2023-10-09T11:29:59;13.10;99.90
5392;DHT22;2719;53.624;9.786;2023-10-09T11:32:46;13.10;99.90
5392;DHT22;2719;53.624;9.786;2023-10-09T11:35:16;13.20;99.90
5392;DHT22;2719;53.624;9.786;2023-10-09T11:37:55;13.20;99.90
5392;DHT22;2719;53.624;9.786;2023-10-09T11:40:29;13.20;99.90
5392;DHT22;2719;53.624;9.786;2023-10-09T11:43:10;13.20;99.90
5392;DHT22;2719;53.624;9.786;2023-10-09T11:45:40;13.20;99.90
5392;DHT22;2719;53.624;9.786;2023-10-09T11:48:20;13.20;99.90
5392;DHT22;2719;53.624;9.786;2023-10-09T11:50:52;13.30;99.90
5392;DHT22;2719;53.624;9.786;2023-10-09T11:53:21;13.20;99.90
5392;DHT22;2719;53.624;9.786;2023-10-09T11:55:59;13.30;99.90
5392;DHT22;2719;53.624;9.786;2023-10-09T11:58:26;13.30;99.90
5392;DHT22;2719;53.624;9.786;2023-10-09T12:00:54;13.40;99.90
5392;DHT22;2719;53.624;9.786;2023-10-09T12:03:25;13.40;99.90
5392;DHT22;2719;53.624;9.786;2023-10-09T12:05:55;13.40;99.90
5392;DHT22;2719;53.624;9.786;2023-10-09T12:08:23;13.40;99.90
5392;DHT22;2719;53.624;9.786;2023-10-09T12:10:52;13.50;99.90
5392;DHT22;2719;53.624;9.786;2023-10-09T12:13:20;13.50;99.90
5392;DHT22;2719;53.624;9.786;2023-10-09T12:15:48;13.40;99.90
5392;DHT22;2719;53.624;9.786;2023-10-09T12:18:19;13.50;99.90
5392;DHT22;2719;53.624;9.786;2023-10-09T12:20:47;13.50;99.90
5392;DHT22;2719;53.624;9.786;2023-10-09T12:23:17;13.50;99.90
5392;DHT22;2719;53.624;9.786;2023-10-09T12:25:44;13.50;99.90
5392;DHT22;2719;53.624;9.786;2023-10-09T12:28:12;13.60;99.90
5392;DHT22;2719;53.624;9.786;2023-10-09T12:30:39;13.60;99.90
5392;DHT22;2719;53.624;9.786;2023-10-09T12:33:06;13.60;99.90
5392;DHT22;2719;53.624;9.786;2023-10-09T12:35:37;13.60;99.90
5392;DHT22;2719;53.624;9.786;2023-10-09T12:38:05;13.70;99.90
5392;DHT22;2719;53.624;9.786;2023-10-09T12:40:34;13.70;99.90
5392;DHT22;2719;53.624;9.786;2023-10-09T12:43:01;13.70;99.90
5392;DHT22;2719;53.624;9.786;2023-10-09T12:45:28;13.70;99.90
5392;DHT22;2719;53.624;9.786;2023-10-09T12:47:58;13.70;99.90
5392;DHT22;2719;53.624;9.786;2023-10-09T12:50:25;13.70;99.90
5392;DHT22;2719;53.624;9.786;2023-10-09T12:52:57;13.70;99.90
5392;DHT22;2719;53.624;9.786;2023-10-09T12:55:27;13.70;99.90
5392;DHT22;2719;53.624;9.786;2023-10-09T12:58:00;13.70;99.90
5392;DHT22;2719;53.624;9.786;2023-10-09T13:00:32;13.80;99.90
5392;DHT22;2719;53.624;9.786;2023-10-09T13:02:59;13.80;99.90
5392;DHT22;2719;53.624;9.786;2023-10-09T13:05:27;13.80;99.90
5392;DHT22;2719;53.624;9.786;2023-10-09T13:07:54;13.80;99.90
5392;DHT22;2719;53.624;9.786;2023-10-09T13:10:23;13.90;99.90
5392;DHT22;2719;53.624;9.786;2023-10-09T13:12:50;13.80;99.90
5392;DHT22;2719;53.624;9.786;2023-10-09T13:15:20;13.90;99.90
5392;DHT22;2719;53.624;9.786;2023-10-09T13:17:47;14.00;99.90
5392;DHT22;2719;53.624;9.786;2023-10-09T13:20:14;14.00;99.90
5392;DHT22;2719;53.624;9.786;2023-10-09T13:22:43;14.00;99.90
5392;DHT22;2719;53.624;9.786;2023-10-09T13:25:10;14.10;99.90
5392;DHT22;2719;53.624;9.786;2023-10-09T13:27:43;14.10;99.90
5392;DHT22;2719;53.624;9.786;2023-10-09T13:30:16;14.10;99.90
5392;DHT22;2719;53.624;9.786;2023-10-09T13:32:47;14.00;99.90
5392;DHT22;2719;53.624;9.786;2023-10-09T13:35:15;14.10;99.90
5392;DHT22;2719;53.624;9.786;2023-10-09T13:37:42;14.10;99.90
5392;DHT22;2719;53.624;9.786;2023-10-09T13:40:09;14.00;99.90
5392;DHT22;2719;53.624;9.786;2023-10-09T13:42:36;14.10;99.90
5392;DHT22;2719;53.624;9.786;2023-10-09T13:45:06;14.10;99.90
5392;DHT22;2719;53.624;9.786;2023-10-09T13:47:41;14.10;99.90
5392;DHT22;2719;53.624;9.786;2023-10-09T13:50:10;14.20;99.90
5392;DHT22;2719;53.624;9.786;2023-10-09T13:52:36;14.10;99.90
5392;DHT22;2719;53.624;9.786;2023-10-09T13:55:05;14.10;99.90
5392;DHT22;2719;53.624;9.786;2023-10-09T13:57:40;14.20;99.90
5392;DHT22;2719;53.624;9.786;2023-10-09T14:00:13;14.20;99.90
5392;DHT22;2719;53.624;9.786;2023-10-09T14:02:43;14.20;99.90
5392;DHT22;2719;53.624;9.786;2023-10-09T14:05:11;14.30;99.90
5392;DHT22;2719;53.624;9.786;2023-10-09T14:07:39;14.30;99.90
5392;DHT22;2719;53.624;9.786;2023-10-09T14:10:07;14.40;99.90
5392;DHT22;2719;53.624;9.786;2023-10-09T14:12:43;14.40;99.90
5392;DHT22;2719;53.624;9.786;2023-10-09T14:15:10;14.50;99.90
5392;DHT22;2719;53.624;9.786;2023-10-09T14:17:43;14.50;99.90
5392;DHT22;2719;53.624;9.786;2023-10-09T14:20:12;14.50;99.90
5392;DHT22;2719;53.624;9.786;2023-10-09T14:22:57;14.50;99.90
5392;DHT22;2719;53.624;9.786;2023-10-09T14:25:31;14.50;99.90
5392;DHT22;2719;53.624;9.786;2023-10-09T14:27:58;14.50;99.90
5392;DHT22;2719;53.624;9.786;2023-10-09T14:30:25;14.60;99.90
5392;DHT22;2719;53.624;9.786;2023-10-09T14:32:57;14.60;99.90
5392;DHT22;2719;53.624;9.786;2023-10-09T14:35:26;14.70;99.90
5392;DHT22;2719;53.624;9.786;2023-10-09T14:37:55;14.70;99.90
5392;DHT22;2719;53.624;9.786;2023-10-09T14:40:22;14.70;99.90
5392;DHT22;2719;53.624;9.786;2023-10-09T14:42:55;14.70;99.90
5392;DHT22;2719;53.624;9.786;2023-10-09T14:45:23;14.80;99.90
5392;DHT22;2719;53.624;9.786;2023-10-09T14:47:51;14.80;99.90
5392;DHT22;2719;53.624;9.786;2023-10-09T14:50:20;14.80;99.90
5392;DHT22;2719;53.624;9.786;2023-10-09T14:52:48;14.80;99.90
5392;DHT22;2719;53.624;9.786;2023-10-09T14:55:16;14.90;99.90
5392;DHT22;2719;53.624;9.786;2023-10-09T14:57:46;14.90;99.90
5392;DHT22;2719;53.624;9.786;2023-10-09T15:00:15;14.90;99.90
5392;DHT22;2719;53.624;9.786;2023-10-09T15:02:48;14.90;99.90
5392;DHT22;2719;53.624;9.786;2023-10-09T15:05:15;15.00;99.90
5392;DHT22;2719;53.624;9.786;2023-10-09T15:07:43;15.00;99.90
5392;DHT22;2719;53.624;9.786;2023-10-09T15:10:10;15.10;99.90
5392;DHT22;2719;53.624;9.786;2023-10-09T15:12:40;15.00;99.90
5392;DHT22;2719;53.624;9.786;2023-10-09T15:15:09;15.00;99.90
5392;DHT22;2719;53.624;9.786;2023-10-09T15:17:39;15.10;99.90
5392;DHT22;2719;53.624;9.786;2023-10-09T15:20:10;15.10;99.90
5392;DHT22;2719;53.624;9.786;2023-10-09T15:22:39;15.10;99.90
5392;DHT22;2719;53.624;9.786;2023-10-09T15:25:08;15.10;99.90
5392;DHT22;2719;53.624;9.786;2023-10-09T15:27:39;15.10;99.90
5392;DHT22;2719;53.624;9.786;2023-10-09T15:30:07;15.10;99.90
5392;DHT22;2719;53.624;9.786;2023-10-09T15:32:38;15.20;99.90
5392;DHT22;2719;53.624;9.786;2023-10-09T15:35:07;15.20;99.90
5392;DHT22;2719;53.624;9.786;2023-10-09T15:37:35;15.20;99.90
5392;DHT22;2719;53.624;9.786;2023-10-09T15:40:02;15.20;99.90
5392;DHT22;2719;53.624;9.786;2023-10-09T15:42:40;15.20;99.90
5392;DHT22;2719;53.624;9.786;2023-10-09T15:45:07;15.20;99.90
5392;DHT22;2719;53.624;9.786;2023-10-09T15:47:34;15.20;99.90
5392;DHT22;2719;53.624;9.786;2023-10-09T15:50:02;15.20;99.90
5392;DHT22;2719;53.624;9.786;2023-10-09T15:52:29;15.20;99.90
5392;DHT22;2719;53.624;9.786;2023-10-09T15:54:57;15.20;99.90
5392;DHT22;2719;53.624;9.786;2023-10-09T15:57:23;15.30;99.90
5392;DHT22;2719;53.624;9.786;2023-10-09T15:59:51;15.30;99.90
5392;DHT22;2719;53.624;9.786;2023-10-09T16:02:18;15.20;99.90
5392;DHT22;2719;53.624;9.786;2023-10-09T16:04:45;15.30;99.90
5392;DHT22;2719;53.624;9.786;2023-10-09T16:07:11;15.20;99.90
5392;DHT22;2719;53.624;9.786;2023-10-09T16:09:39;15.20;99.90
5392;DHT22;2719;53.624;9.786;2023-10-09T16:12:07;15.20;99.90
5392;DHT22;2719;53.624;9.786;2023-10-09T16:14:35;15.20;99.90
5392;DHT22;2719;53.624;9.786;2023-10-09T16:17:03;15.20;99.90
5392;DHT22;2719;53.624;9.786;2023-10-09T16:19:31;15.20;99.90
5392;DHT22;2719;53.624;9.786;2023-10-09T16:22:01;15.20;99.90
5392;DHT22;2719;53.624;9.786;2023-10-09T16:24:29;15.10;99.90
5392;DHT22;2719;53.624;9.786;2023-10-09T16:26:58;15.20;99.90
5392;DHT22;2719;53.624;9.786;2023-10-09T16:29:25;15.20;99.90
5392;DHT22;2719;53.624;9.786;2023-10-09T16:31:53;15.20;99.90
5392;DHT22;2719;53.624;9.786;2023-10-09T16:34:22;15.20;99.90
5392;DHT22;2719;53.624;9.786;2023-10-09T16:36:51;15.20;99.90
5392;DHT22;2719;53.624;9.786;2023-10-09T16:39:18;15.20;99.90
5392;DHT22;2719;53.624;9.786;2023-10-09T16:41:48;15.20;99.90